^^
Meteo Knjazevac Station Historical Data
Daily Summary for January 2, 2022 Units:  Metric    English   Both
Daily Weekly Monthly Yearly Custom
  High: Low: Average:
Temperature: 31.4 °C 11.7 °C 22.8 °C
Dew Point: 18.3 °C 10.9 °C 15.2 °C
Humidity: 96% 43% 66%
Wind Speed: 12.9km/h 0km/h 3.4km/h
Wind Gust: 24.1km/h - -
Wind- - SSW
Pressure: 1017.5 hPa 1015.1 hPa -
Precipitation: 0 mm    
Historical Graphs
 
 
Tabular Data for January 2, 2022
Time Temperature Dew Point Pressure Wind Wind Speed Wind Gust Humidity Rainfall Rate (Hourly) solar Conditions
00:00 16.1 °C 13.4 °C 1016.5 hPa WNW 1.6 km/h 4.8 km/h 84% 0 mm 0 W/m2
00:10 15.9 °C 13.2 °C 1016.5 hPa Calm   4.8 km/h 84% 0 mm 0 W/m2
00:20 16 °C 13.1 °C 1016.1 hPa Calm   6.4 km/h 83% 0 mm 0 W/m2
00:40 15.7 °C 13.2 °C 1016.1 hPa West 1.6 km/h 3.2 km/h 85% 0 mm 0 W/m2
00:50 15.3 °C 12.9 °C 1016.1 hPa Calm   3.2 km/h 86% 0 mm 0 W/m2
01:10 15 °C 13 °C 1016.1 hPa Calm   1.6 km/h 88% 0 mm 0 W/m2
01:20 14.8 °C 12.8 °C 1016.1 hPa Calm   3.2 km/h 88% 0 mm 0 W/m2
01:30 14.6 °C 12.8 °C 1016.1 hPa Calm   3.2 km/h 89% 0 mm 0 W/m2
01:40 14.6 °C 12.8 °C 1016.1 hPa NW 1.6 km/h 3.2 km/h 89% 0 mm 0 W/m2
01:50 14.3 °C 12.5 °C 1016.1 hPa Calm   3.2 km/h 89% 0 mm 0 W/m2
02:00 14.1 °C 12.3 °C 1016.1 hPa Calm   3.2 km/h 89% 0 mm 0 W/m2
02:10 13.9 °C 12.3 °C 1016.1 hPa Calm   3.2 km/h 90% 0 mm 0 W/m2
02:20 13.8 °C 12.2 °C 1016.1 hPa North 3.2 km/h 3.2 km/h 90% 0 mm 0 W/m2
02:30 13.7 °C 12.1 °C 1016.1 hPa Calm   3.2 km/h 90% 0 mm 0 W/m2
02:40 13.6 °C 11.9 °C 1016.1 hPa Calm   3.2 km/h 90% 0 mm 0 W/m2
02:50 13.3 °C 11.8 °C 1016.1 hPa West 1.6 km/h 4.8 km/h 91% 0 mm 0 W/m2
03:00 13.1 °C 11.6 °C 1016.1 hPa West 1.6 km/h 4.8 km/h 91% 0 mm 0 W/m2
03:10 12.8 °C 11.8 °C 1016.1 hPa NW 1.6 km/h 6.4 km/h 93% 0 mm 0 W/m2
03:20 12.8 °C 11.7 °C 1016.1 hPa Calm   4.8 km/h 93% 0 mm 0 W/m2
03:30 12.7 °C 11.8 °C 1016.1 hPa WNW 1.6 km/h 3.2 km/h 94% 0 mm 0 W/m2
03:50 12.5 °C 11.6 °C 1016.1 hPa WNW 1.6 km/h 4.8 km/h 94% 0 mm 0 W/m2
04:10 12.5 °C 11.6 °C 1016.1 hPa Calm   6.4 km/h 94% 0 mm 0 W/m2
04:20 12.5 °C 11.6 °C 1016.1 hPa Calm   3.2 km/h 94% 0 mm 0 W/m2
04:30 12.3 °C 11.4 °C 1016.1 hPa NW 1.6 km/h 3.2 km/h 94% 0 mm 0 W/m2
04:40 12.3 °C 11.3 °C 1016.1 hPa Calm   1.6 km/h 94% 0 mm 0 W/m2
04:50 12.3 °C 11.5 °C 1016.1 hPa Calm   3.2 km/h 95% 0 mm 0 W/m2
05:00 12.2 °C 11.3 °C 1016.1 hPa WNW 1.6 km/h 4.8 km/h 94% 0 mm 0 W/m2
05:50 11.8 °C 10.9 °C 1016.5 hPa Calm   3.2 km/h 94% 0 mm 21 W/m2
06:00 11.7 °C 10.9 °C 1016.5 hPa Calm   3.2 km/h 95% 0 mm 27 W/m2
06:10 11.7 °C 10.9 °C 1016.8 hPa NW 1.6 km/h 3.2 km/h 95% 0 mm 65 W/m2
06:20 11.7 °C 10.9 °C 1016.8 hPa Calm   1.6 km/h 95% 0 mm 87 W/m2
06:30 11.7 °C 11.1 °C 1017.2 hPa Calm   3.2 km/h 96% 0 mm 112 W/m2
06:40 11.8 °C 11.2 °C 1017.2 hPa Calm   1.6 km/h 96% 0 mm 137 W/m2
06:50 11.9 °C 11.3 °C 1017.2 hPa Calm   3.2 km/h 96% 0 mm 165 W/m2
07:00 12.2 °C 11.6 °C 1017.2 hPa Calm   3.2 km/h 96% 0 mm 194 W/m2
07:10 12.6 °C 12 °C 1017.2 hPa Calm   3.2 km/h 96% 0 mm 225 W/m2
07:30 13.8 °C 12.7 °C 1017.2 hPa Calm   8 km/h 93% 0 mm 296 W/m2
07:50 15.2 °C 13.2 °C 1017.2 hPa Calm   3.2 km/h 88% 0 mm 361 W/m2
08:00 15.6 °C 13.6 °C 1017.2 hPa WNW 1.6 km/h 3.2 km/h 88% 0 mm 399 W/m2
08:10 16.6 °C 14 °C 1017.2 hPa SSW 1.6 km/h 3.2 km/h 85% 0 mm 438 W/m2
08:20 17.3 °C 14.3 °C 1017.5 hPa Calm   3.2 km/h 83% 0 mm 481 W/m2
08:30 17.9 °C 14.8 °C 1017.5 hPa WNW 1.6 km/h 3.2 km/h 82% 0 mm 517 W/m2
08:40 19.6 °C 15.3 °C 1017.5 hPa WNW 1.6 km/h 3.2 km/h 76% 0 mm 546 W/m2
08:50 20.9 °C 15.7 °C 1017.5 hPa WSW 3.2 km/h 6.4 km/h 72% 0 mm 575 W/m2
09:10 22.7 °C 15.5 °C 1017.2 hPa SW 1.6 km/h 6.4 km/h 64% 0 mm 630 W/m2
09:20 23.5 °C 16.1 °C 1017.2 hPa South 1.6 km/h 9.7 km/h 63% 0 mm 657 W/m2
09:30 24 °C 16.3 °C 1017.2 hPa ENE 4.8 km/h 12.9 km/h 62% 0 mm 682 W/m2
09:40 24.4 °C 16.1 °C 1017.2 hPa ENE 3.2 km/h 11.3 km/h 60% 0 mm 707 W/m2
10:00 25.1 °C 16 °C 1016.8 hPa ESE 8 km/h 9.7 km/h 57% 0 mm 753 W/m2
10:10 25.4 °C 16.3 °C 1016.8 hPa South 3.2 km/h 11.3 km/h 57% 0 mm 774 W/m2
10:20 25.6 °C 16.7 °C 1016.8 hPa SE 3.2 km/h 9.7 km/h 58% 0 mm 795 W/m2
10:40 26.9 °C 16.8 °C 1016.8 hPa East 3.2 km/h 12.9 km/h 54% 0 mm 831 W/m2
10:50 27.6 °C 17.2 °C 1016.8 hPa NE 8 km/h 19.3 km/h 53% 0 mm 89 W/m2
11:00 28.1 °C 17 °C 1016.8 hPa NE 8 km/h 19.3 km/h 51% 0 mm 733 W/m2
11:20 28.8 °C 17.1 °C 1016.5 hPa North 9.7 km/h 20.9 km/h 49% 0 mm 501 W/m2
11:30 28.7 °C 17.9 °C 1016.5 hPa NNE 8 km/h 20.9 km/h 52% 0 mm 899 W/m2
11:40 29.1 °C 17.6 °C 1016.1 hPa NNE 8 km/h 16.1 km/h 50% 0 mm 908 W/m2
11:50 29.3 °C 17.5 °C 1016.1 hPa NNE 4.8 km/h 14.5 km/h 49% 0 mm 916 W/m2
12:00 29.6 °C 17.8 °C 1016.1 hPa ENE 4.8 km/h 17.7 km/h 49% 0 mm 922 W/m2
12:10 29.8 °C 18 °C 1016.1 hPa North 1.6 km/h 16.1 km/h 49% 0 mm 927 W/m2
12:20 30.1 °C 17.6 °C 1016.1 hPa North 4.8 km/h 22.5 km/h 47% 0 mm 930 W/m2
12:30 30.6 °C 18.3 °C 1015.8 hPa NNE 9.7 km/h 17.7 km/h 48% 0 mm 931 W/m2
12:40 30.4 °C 17.8 °C 1015.8 hPa NE 3.2 km/h 20.9 km/h 47% 0 mm 257 W/m2
13:00 31 °C 17.3 °C 1015.5 hPa NNW 3.2 km/h 12.9 km/h 44% 0 mm 449 W/m2
13:10 31.1 °C 18.1 °C 1015.5 hPa WNW 3.2 km/h 16.1 km/h 46% 0 mm 922 W/m2
13:20 31.1 °C 17.4 °C 1015.5 hPa NNE 8 km/h 16.1 km/h 44% 0 mm 916 W/m2
13:30 31.2 °C 17.5 °C 1015.5 hPa NW 8 km/h 24.1 km/h 44% 0 mm 908 W/m2
13:40 31.1 °C 17.7 °C 1015.5 hPa North 8 km/h 14.5 km/h 45% 0 mm 899 W/m2
13:50 31.3 °C 17.6 °C 1015.5 hPa NNW 4.8 km/h 16.1 km/h 44% 0 mm 648 W/m2
14:00 30.2 °C 16.6 °C 1015.5 hPa NW 8 km/h 14.5 km/h 44% 0 mm 160 W/m2
14:10 29.8 °C 16.6 °C 1015.5 hPa NNW 4.8 km/h 14.5 km/h 45% 0 mm 289 W/m2
14:20 30 °C 17.1 °C 1015.5 hPa North 3.2 km/h 14.5 km/h 46% 0 mm 239 W/m2
14:30 29.9 °C 17.3 °C 1015.5 hPa NNE 8 km/h 17.7 km/h 47% 0 mm 488 W/m2
14:40 29.9 °C 17.1 °C 1015.5 hPa North 8 km/h 12.9 km/h 46% 0 mm 193 W/m2
14:50 29.8 °C 16.6 °C 1015.5 hPa NNW 9.7 km/h 19.3 km/h 45% 0 mm 219 W/m2
15:00 30.4 °C 16.7 °C 1015.1 hPa North 9.7 km/h 20.9 km/h 44% 0 mm 295 W/m2
15:10 30.9 °C 17.6 °C 1015.1 hPa NNW 9.7 km/h 17.7 km/h 45% 0 mm 205 W/m2
15:20 30.6 °C 17.3 °C 1015.5 hPa NNW 3.2 km/h 17.7 km/h 45% 0 mm 560 W/m2
15:40 30.2 °C 17.6 °C 1015.5 hPa North 4.8 km/h 16.1 km/h 47% 0 mm 681 W/m2
15:50 30.9 °C 18.3 °C 1015.1 hPa North 3.2 km/h 12.9 km/h 47% 0 mm 656 W/m2
16:00 31.1 °C 18.2 °C 1015.1 hPa NNE 4.8 km/h 12.9 km/h 46% 0 mm 252 W/m2
16:20 29.8 °C 17.3 °C 1015.1 hPa North 8 km/h 14.5 km/h 47% 0 mm 164 W/m2
16:30 29.6 °C 17.1 °C 1015.1 hPa North 4.8 km/h 17.7 km/h 47% 0 mm 274 W/m2
16:40 30.2 °C 17.6 °C 1015.1 hPa North 8 km/h 17.7 km/h 47% 0 mm 516 W/m2
16:50 30.6 °C 17.3 °C 1015.1 hPa North 3.2 km/h 20.9 km/h 45% 0 mm 486 W/m2
17:00 30.6 °C 17.3 °C 1015.1 hPa NNW 3.2 km/h 14.5 km/h 45% 0 mm 455 W/m2
17:10 30.8 °C 17.5 °C 1015.1 hPa North 4.8 km/h 17.7 km/h 45% 0 mm 425 W/m2
17:20 30.9 °C 17.2 °C 1015.1 hPa North 8 km/h 20.9 km/h 44% 0 mm 394 W/m2
17:30 31.3 °C 17.2 °C 1015.1 hPa North 8 km/h 14.5 km/h 43% 0 mm 363 W/m2
17:40 31.4 °C 17.3 °C 1015.1 hPa North 9.7 km/h 19.3 km/h 43% 0 mm 332 W/m2
17:50 31.1 °C 17.1 °C 1015.1 hPa North 12.9 km/h 22.5 km/h 43% 0 mm 301 W/m2
18:00 30.8 °C 17.1 °C 1015.5 hPa North 3.2 km/h 19.3 km/h 44% 0 mm 260 W/m2
18:10 30.6 °C 16.9 °C 1015.5 hPa North 3.2 km/h 11.3 km/h 44% 0 mm 90 W/m2
18:30 30.4 °C 16.8 °C 1015.5 hPa North 9.7 km/h 19.3 km/h 44% 0 mm 165 W/m2
18:40 30.1 °C 16.6 °C 1015.5 hPa North 4.8 km/h 16.1 km/h 44% 0 mm 60 W/m2
18:50 29.8 °C 16.6 °C 1015.5 hPa North 4.8 km/h 16.1 km/h 45% 0 mm 97 W/m2
19:00 29.6 °C 16.8 °C 1015.5 hPa NNW 4.8 km/h 12.9 km/h 46% 0 mm 74 W/m2
19:10 29.1 °C 16.7 °C 1015.8 hPa NNW 4.8 km/h 14.5 km/h 47% 0 mm 35 W/m2
19:20 28.7 °C 16.6 °C 1015.8 hPa NNW 4.8 km/h 12.9 km/h 48% 0 mm 36 W/m2
19:30 28.2 °C 16.2 °C 1015.8 hPa NW 3.2 km/h 11.3 km/h 48% 0 mm 24 W/m2
19:40 27.8 °C 16.1 °C 1015.8 hPa WNW 1.6 km/h 6.4 km/h 49% 0 mm 13 W/m2
19:50 27.4 °C 16.1 °C 1015.8 hPa WNW 3.2 km/h 8 km/h 50% 0 mm 4 W/m2
20:10 26.4 °C 16.4 °C 1016.1 hPa WSW 1.6 km/h 4.8 km/h 54% 0 mm 0 W/m2
20:20 25.8 °C 16.7 °C 1016.1 hPa SSW 1.6 km/h 3.2 km/h 57% 0 mm 0 W/m2
20:30 24.8 °C 16.3 °C 1016.1 hPa SSE 4.8 km/h 8 km/h 59% 0 mm 0 W/m2
20:40 24.4 °C 16.1 °C 1016.5 hPa South 3.2 km/h 8 km/h 60% 0 mm 0 W/m2
20:50 24 °C 16.3 °C 1016.5 hPa SW 1.6 km/h 6.4 km/h 62% 0 mm 0 W/m2
21:00 23.6 °C 16.2 °C 1016.5 hPa WSW 1.6 km/h 3.2 km/h 63% 0 mm 0 W/m2
21:10 23.2 °C 16.3 °C 1016.8 hPa SW 1.6 km/h 3.2 km/h 65% 0 mm 0 W/m2
21:20 22.8 °C 15.9 °C 1016.8 hPa SW 1.6 km/h 3.2 km/h 65% 0 mm 0 W/m2
Knjazevac, Serbia
Compliments of Weather Underground - 2 mb